Aeroporto :
LOGIN :

Iscrizione | Disclaimer

   EN    FR    IT 

 










Sommario :    VFR   VFR Marginale   IFR   IFR Intensivo   IFR Molto Intensivo
Visibilità : 
Base nubi : 
>= 8 km
>= 3000ft
5 / 8 km
1000 / 3000 ft
1500m / 5 km
500 / 1000 ft
800 / 1500m
200 / 500 ft
< 800m
< 200 ft
Simboli :   Temporali  Nebbia  Neve Forte  Precipitazioni Forti  Vento > 20 kt
SIGMETs :   Varie  Temporali  Ghiacco  Turbolenza  Onda orograficha  Ceneri Vulcaniche






- Altitudine del aeroporto : 362 ft
- Codice IATA : WAW


EPWA - Warsaw Okecie

ULTIMO METAR :
  • 191500Z 32005KT CAVOK 03/M01 Q1032 NOSIG

METARs OBSOLETI :
  • 191430Z 34005KT 320V020 CAVOK 05/M00 Q1032 NOSIG
  • 191400Z 34008KT CAVOK 05/00 Q1032 NOSIG
  • 191330Z 33007KT CAVOK 05/00 Q1031 NOSIG
  • 191300Z 32007KT CAVOK 06/01 Q1031 NOSIG
  • 191230Z 32008KT CAVOK 06/01 Q1030 NOSIG

TAF TAF EPWA
Valido dal 19 a 15 ore il 20 a 15 ore UTC


191430Z 1915/2015 32006KT CAVOK
BECMG 1920/1923 4500 BR BKN014
TEMPO 1923/2007 1500 BR BKN005
PROB40 2002/2007 0600 FG OVC002



MetMap, La meteo Aeronautica in un colpo d'occhio ! - Copyright ORBIFLY Dicembre 2007 - Disclaimer

ORBIFLY MET'MAP TEAM :

Programmazione e sviluppo : Alexandra Zaïnal
Concezione : Baudouin d'Aumeries
Aiuto per la programmazione : Marc-Olivier Méhu
Supporto tecnico e logistico : Manuel Goepfert
Aiuto per la traduzione : Arnaldo La Scala

Contatto : metmap@orbifly.com




FONTI E CREDITI :

   NOAA